sensor_id;sensor_type;location;lat;lon;timestamp;temperature;humidity
75170;SHT31;63749;49.186;9.222;2023-12-14T00:01:41;7.46;96.72
75170;SHT31;63749;49.186;9.222;2023-12-14T00:04:08;7.46;96.83
75170;SHT31;63749;49.186;9.222;2023-12-14T00:06:33;7.46;97.04
75170;SHT31;63749;49.186;9.222;2023-12-14T00:08:59;7.43;96.60
75170;SHT31;63749;49.186;9.222;2023-12-14T00:11:26;7.52;96.50
75170;SHT31;63749;49.186;9.222;2023-12-14T00:13:52;7.58;96.28
75170;SHT31;63749;49.186;9.222;2023-12-14T00:16:18;7.52;96.62
75170;SHT31;63749;49.186;9.222;2023-12-14T00:18:43;7.52;96.59
75170;SHT31;63749;49.186;9.222;2023-12-14T00:21:08;7.63;95.92
75170;SHT31;63749;49.186;9.222;2023-12-14T00:23:34;7.63;95.87
75170;SHT31;63749;49.186;9.222;2023-12-14T00:25:59;7.53;96.33
75170;SHT31;63749;49.186;9.222;2023-12-14T00:28:25;7.49;96.51
75170;SHT31;63749;49.186;9.222;2023-12-14T00:30:50;7.52;96.82
75170;SHT31;63749;49.186;9.222;2023-12-14T00:33:16;7.53;96.75
75170;SHT31;63749;49.186;9.222;2023-12-14T00:35:42;7.55;96.64
75170;SHT31;63749;49.186;9.222;2023-12-14T00:38:08;7.58;96.29
75170;SHT31;63749;49.186;9.222;2023-12-14T00:40:33;7.58;96.56
75170;SHT31;63749;49.186;9.222;2023-12-14T00:42:58;7.55;96.60
75170;SHT31;63749;49.186;9.222;2023-12-14T00:45:24;7.48;96.30
75170;SHT31;63749;49.186;9.222;2023-12-14T00:47:52;7.46;96.55
75170;SHT31;63749;49.186;9.222;2023-12-14T00:50:17;7.46;96.38
75170;SHT31;63749;49.186;9.222;2023-12-14T00:52:43;7.42;96.46
75170;SHT31;63749;49.186;9.222;2023-12-14T00:55:08;7.39;96.67
75170;SHT31;63749;49.186;9.222;2023-12-14T00:57:33;7.39;96.61
75170;SHT31;63749;49.186;9.222;2023-12-14T00:59:59;7.36;96.47
75170;SHT31;63749;49.186;9.222;2023-12-14T01:02:24;7.31;96.65
75170;SHT31;63749;49.186;9.222;2023-12-14T01:04:49;7.31;96.83
75170;SHT31;63749;49.186;9.222;2023-12-14T01:07:15;7.31;97.05
75170;SHT31;63749;49.186;9.222;2023-12-14T01:09:40;7.29;97.04
75170;SHT31;63749;49.186;9.222;2023-12-14T01:12:07;7.35;97.14
75170;SHT31;63749;49.186;9.222;2023-12-14T01:14:32;7.36;96.98
75170;SHT31;63749;49.186;9.222;2023-12-14T01:16:58;7.41;96.78
75170;SHT31;63749;49.186;9.222;2023-12-14T01:19:25;7.39;96.83
75170;SHT31;63749;49.186;9.222;2023-12-14T01:21:51;7.35;97.10
75170;SHT31;63749;49.186;9.222;2023-12-14T01:24:18;7.38;97.36
75170;SHT31;63749;49.186;9.222;2023-12-14T01:26:44;7.35;97.24
75170;SHT31;63749;49.186;9.222;2023-12-14T01:29:09;7.42;97.24
75170;SHT31;63749;49.186;9.222;2023-12-14T01:31:36;7.43;97.02
75170;SHT31;63749;49.186;9.222;2023-12-14T01:34:02;7.49;97.21
75170;SHT31;63749;49.186;9.222;2023-12-14T01:36:28;7.45;97.09
75170;SHT31;63749;49.186;9.222;2023-12-14T01:38:55;7.49;96.97
75170;SHT31;63749;49.186;9.222;2023-12-14T01:41:29;7.53;97.20
75170;SHT31;63749;49.186;9.222;2023-12-14T01:43:56;7.55;97.00
75170;SHT31;63749;49.186;9.222;2023-12-14T01:46:22;7.56;96.93
75170;SHT31;63749;49.186;9.222;2023-12-14T01:48:50;7.58;96.77
75170;SHT31;63749;49.186;9.222;2023-12-14T01:51:17;7.58;96.55
75170;SHT31;63749;49.186;9.222;2023-12-14T01:53:46;7.55;96.34
75170;SHT31;63749;49.186;9.222;2023-12-14T01:56:12;7.53;96.59
75170;SHT31;63749;49.186;9.222;2023-12-14T01:58:48;7.55;96.62
75170;SHT31;63749;49.186;9.222;2023-12-14T02:01:46;7.55;96.62
75170;SHT31;63749;49.186;9.222;2023-12-14T02:04:14;7.49;96.76
75170;SHT31;63749;49.186;9.222;2023-12-14T02:06:47;7.56;96.41
75170;SHT31;63749;49.186;9.222;2023-12-14T02:09:35;7.52;96.47
75170;SHT31;63749;49.186;9.222;2023-12-14T02:12:02;7.53;96.61
75170;SHT31;63749;49.186;9.222;2023-12-14T02:14:27;7.55;96.65
75170;SHT31;63749;49.186;9.222;2023-12-14T02:16:53;7.53;96.65
75170;SHT31;63749;49.186;9.222;2023-12-14T02:19:18;7.52;96.69
75170;SHT31;63749;49.186;9.222;2023-12-14T02:21:44;7.55;96.60
75170;SHT31;63749;49.186;9.222;2023-12-14T02:24:09;7.52;96.73
75170;SHT31;63749;49.186;9.222;2023-12-14T02:26:34;7.46;97.08
75170;SHT31;63749;49.186;9.222;2023-12-14T02:29:01;7.49;97.10
75170;SHT31;63749;49.186;9.222;2023-12-14T02:31:26;7.49;97.08
75170;SHT31;63749;49.186;9.222;2023-12-14T02:33:52;7.48;97.02
75170;SHT31;63749;49.186;9.222;2023-12-14T02:36:17;7.46;97.03
75170;SHT31;63749;49.186;9.222;2023-12-14T02:38:43;7.48;96.91
75170;SHT31;63749;49.186;9.222;2023-12-14T02:41:08;7.45;96.92
75170;SHT31;63749;49.186;9.222;2023-12-14T02:43:35;7.48;97.02
75170;SHT31;63749;49.186;9.222;2023-12-14T02:46:00;7.49;96.92
75170;SHT31;63749;49.186;9.222;2023-12-14T02:48:28;7.52;96.93
75170;SHT31;63749;49.186;9.222;2023-12-14T02:50:58;7.49;96.90
75170;SHT31;63749;49.186;9.222;2023-12-14T02:53:26;7.48;96.99
75170;SHT31;63749;49.186;9.222;2023-12-14T02:55:52;7.53;96.85
75170;SHT31;63749;49.186;9.222;2023-12-14T02:58:18;7.49;96.90
75170;SHT31;63749;49.186;9.222;2023-12-14T03:00:45;7.49;96.93
75170;SHT31;63749;49.186;9.222;2023-12-14T03:03:10;7.53;96.91
75170;SHT31;63749;49.186;9.222;2023-12-14T03:05:37;7.51;97.09
75170;SHT31;63749;49.186;9.222;2023-12-14T03:08:02;7.46;97.38
75170;SHT31;63749;49.186;9.222;2023-12-14T03:10:28;7.52;97.21
75170;SHT31;63749;49.186;9.222;2023-12-14T03:12:54;7.55;97.10
75170;SHT31;63749;49.186;9.222;2023-12-14T03:15:19;7.53;97.16
75170;SHT31;63749;49.186;9.222;2023-12-14T03:17:45;7.55;97.35
75170;SHT31;63749;49.186;9.222;2023-12-14T03:20:11;7.56;97.44
75170;SHT31;63749;49.186;9.222;2023-12-14T03:22:38;7.59;97.41
75170;SHT31;63749;49.186;9.222;2023-12-14T03:25:04;7.58;97.24
75170;SHT31;63749;49.186;9.222;2023-12-14T03:27:29;7.61;97.33
75170;SHT31;63749;49.186;9.222;2023-12-14T03:29:55;7.62;97.29
75170;SHT31;63749;49.186;9.222;2023-12-14T03:32:21;7.65;97.25
75170;SHT31;63749;49.186;9.222;2023-12-14T03:34:47;7.63;97.09
75170;SHT31;63749;49.186;9.222;2023-12-14T03:37:12;7.61;97.26
75170;SHT31;63749;49.186;9.222;2023-12-14T03:39:38;7.58;97.35
75170;SHT31;63749;49.186;9.222;2023-12-14T03:42:04;7.63;97.28
75170;SHT31;63749;49.186;9.222;2023-12-14T03:44:30;7.65;97.33
75170;SHT31;63749;49.186;9.222;2023-12-14T03:46:55;7.69;97.30
75170;SHT31;63749;49.186;9.222;2023-12-14T03:49:23;7.69;97.18
75170;SHT31;63749;49.186;9.222;2023-12-14T03:51:48;7.72;97.35
75170;SHT31;63749;49.186;9.222;2023-12-14T03:54:14;7.70;97.35
75170;SHT31;63749;49.186;9.222;2023-12-14T03:56:39;7.70;97.33
75170;SHT31;63749;49.186;9.222;2023-12-14T03:59:06;7.67;97.27
75170;SHT31;63749;49.186;9.222;2023-12-14T04:01:32;7.74;97.31
75170;SHT31;63749;49.186;9.222;2023-12-14T04:03:58;7.73;97.33
75170;SHT31;63749;49.186;9.222;2023-12-14T04:06:24;7.73;97.35
75170;SHT31;63749;49.186;9.222;2023-12-14T04:08:49;7.72;97.34
75170;SHT31;63749;49.186;9.222;2023-12-14T04:11:14;7.70;97.46
75170;SHT31;63749;49.186;9.222;2023-12-14T04:13:40;7.70;97.47
75170;SHT31;63749;49.186;9.222;2023-12-14T04:16:07;7.65;97.46
75170;SHT31;63749;49.186;9.222;2023-12-14T04:18:33;7.66;97.41
75170;SHT31;63749;49.186;9.222;2023-12-14T04:20:58;7.67;97.50
75170;SHT31;63749;49.186;9.222;2023-12-14T04:23:24;7.62;97.51
75170;SHT31;63749;49.186;9.222;2023-12-14T04:25:49;7.66;97.55
75170;SHT31;63749;49.186;9.222;2023-12-14T04:28:15;7.65;97.60
75170;SHT31;63749;49.186;9.222;2023-12-14T04:30:40;7.62;97.51
75170;SHT31;63749;49.186;9.222;2023-12-14T04:33:05;7.59;97.60
75170;SHT31;63749;49.186;9.222;2023-12-14T04:35:31;7.58;97.63
75170;SHT31;63749;49.186;9.222;2023-12-14T04:38:01;7.56;97.72
75170;SHT31;63749;49.186;9.222;2023-12-14T04:40:26;7.56;97.80
75170;SHT31;63749;49.186;9.222;2023-12-14T04:42:52;7.58;97.78
75170;SHT31;63749;49.186;9.222;2023-12-14T04:45:17;7.56;97.91
75170;SHT31;63749;49.186;9.222;2023-12-14T04:47:44;7.55;98.00
75170;SHT31;63749;49.186;9.222;2023-12-14T04:50:10;7.58;97.83
75170;SHT31;63749;49.186;9.222;2023-12-14T04:52:37;7.53;97.76
75170;SHT31;63749;49.186;9.222;2023-12-14T04:55:04;7.53;97.88
75170;SHT31;63749;49.186;9.222;2023-12-14T04:57:30;7.51;97.95
75170;SHT31;63749;49.186;9.222;2023-12-14T04:59:56;7.48;97.90
75170;SHT31;63749;49.186;9.222;2023-12-14T05:02:21;7.46;97.89
75170;SHT31;63749;49.186;9.222;2023-12-14T05:04:49;7.46;98.12
75170;SHT31;63749;49.186;9.222;2023-12-14T05:07:15;7.48;97.97
75170;SHT31;63749;49.186;9.222;2023-12-14T05:09:40;7.48;98.02
75170;SHT31;63749;49.186;9.222;2023-12-14T05:12:07;7.48;98.16
75170;SHT31;63749;49.186;9.222;2023-12-14T05:14:32;7.55;98.17
75170;SHT31;63749;49.186;9.222;2023-12-14T05:16:58;7.58;97.94
75170;SHT31;63749;49.186;9.222;2023-12-14T05:19:23;7.56;97.91
75170;SHT31;63749;49.186;9.222;2023-12-14T05:21:50;7.53;98.08
75170;SHT31;63749;49.186;9.222;2023-12-14T05:24:15;7.55;98.13
75170;SHT31;63749;49.186;9.222;2023-12-14T05:26:40;7.53;98.04
75170;SHT31;63749;49.186;9.222;2023-12-14T05:29:06;7.59;98.13
75170;SHT31;63749;49.186;9.222;2023-12-14T05:31:31;7.61;97.81
75170;SHT31;63749;49.186;9.222;2023-12-14T05:33:56;7.65;97.74
75170;SHT31;63749;49.186;9.222;2023-12-14T05:36:22;7.66;97.76
75170;SHT31;63749;49.186;9.222;2023-12-14T05:38:47;7.62;97.84
75170;SHT31;63749;49.186;9.222;2023-12-14T05:41:12;7.65;97.75
75170;SHT31;63749;49.186;9.222;2023-12-14T05:43:38;7.67;97.69
75170;SHT31;63749;49.186;9.222;2023-12-14T05:46:03;7.69;97.44
75170;SHT31;63749;49.186;9.222;2023-12-14T05:48:29;7.66;97.55
75170;SHT31;63749;49.186;9.222;2023-12-14T05:50:56;7.67;97.52
75170;SHT31;63749;49.186;9.222;2023-12-14T05:53:21;7.66;97.38
75170;SHT31;63749;49.186;9.222;2023-12-14T05:55:47;7.63;97.51
75170;SHT31;63749;49.186;9.222;2023-12-14T05:58:12;7.58;97.63
75170;SHT31;63749;49.186;9.222;2023-12-14T06:00:38;7.56;97.69
75170;SHT31;63749;49.186;9.222;2023-12-14T06:03:05;7.58;97.98
75170;SHT31;63749;49.186;9.222;2023-12-14T06:05:30;7.58;97.96
75170;SHT31;63749;49.186;9.222;2023-12-14T06:07:56;7.52;97.75
75170;SHT31;63749;49.186;9.222;2023-12-14T06:10:21;7.49;97.91
75170;SHT31;63749;49.186;9.222;2023-12-14T06:12:47;7.43;97.86
75170;SHT31;63749;49.186;9.222;2023-12-14T06:15:12;7.39;98.00
75170;SHT31;63749;49.186;9.222;2023-12-14T06:17:38;7.32;97.91
75170;SHT31;63749;49.186;9.222;2023-12-14T06:20:05;7.29;98.12
75170;SHT31;63749;49.186;9.222;2023-12-14T06:22:31;7.29;98.18
75170;SHT31;63749;49.186;9.222;2023-12-14T06:24:57;7.26;98.23
75170;SHT31;63749;49.186;9.222;2023-12-14T06:27:22;7.25;98.35
75170;SHT31;63749;49.186;9.222;2023-12-14T06:29:51;7.24;98.32
75170;SHT31;63749;49.186;9.222;2023-12-14T06:32:17;7.24;98.47
75170;SHT31;63749;49.186;9.222;2023-12-14T06:34:42;7.22;98.52
75170;SHT31;63749;49.186;9.222;2023-12-14T06:37:07;7.21;98.57
75170;SHT31;63749;49.186;9.222;2023-12-14T06:39:33;7.19;98.72
75170;SHT31;63749;49.186;9.222;2023-12-14T06:41:58;7.45;98.80
75170;SHT31;63749;49.186;9.222;2023-12-14T06:44:23;7.66;98.14
75170;SHT31;63749;49.186;9.222;2023-12-14T06:46:51;7.56;98.21
75170;SHT31;63749;49.186;9.222;2023-12-14T06:49:17;7.52;98.13
75170;SHT31;63749;49.186;9.222;2023-12-14T06:51:42;7.74;99.20
75170;SHT31;63749;49.186;9.222;2023-12-14T06:54:07;7.91;98.60
75170;SHT31;63749;49.186;9.222;2023-12-14T06:56:32;7.79;97.95
75170;SHT31;63749;49.186;9.222;2023-12-14T06:58:58;7.69;97.84
75170;SHT31;63749;49.186;9.222;2023-12-14T07:01:23;7.66;97.41
75170;SHT31;63749;49.186;9.222;2023-12-14T07:03:48;7.67;97.48
75170;SHT31;63749;49.186;9.222;2023-12-14T07:06:15;7.66;97.46
75170;SHT31;63749;49.186;9.222;2023-12-14T07:08:41;7.63;97.52
75170;SHT31;63749;49.186;9.222;2023-12-14T07:11:08;7.58;97.59
75170;SHT31;63749;49.186;9.222;2023-12-14T07:13:33;7.62;97.46
75170;SHT31;63749;49.186;9.222;2023-12-14T07:16:02;7.65;97.37
75170;SHT31;63749;49.186;9.222;2023-12-14T07:18:27;7.66;97.08
75170;SHT31;63749;49.186;9.222;2023-12-14T07:20:52;7.58;97.50
75170;SHT31;63749;49.186;9.222;2023-12-14T07:23:18;7.62;97.38
75170;SHT31;63749;49.186;9.222;2023-12-14T07:25:43;7.70;96.89
75170;SHT31;63749;49.186;9.222;2023-12-14T07:28:09;7.77;96.52
75170;SHT31;63749;49.186;9.222;2023-12-14T07:30:34;7.72;96.74
75170;SHT31;63749;49.186;9.222;2023-12-14T07:32:59;7.63;97.08
75170;SHT31;63749;49.186;9.222;2023-12-14T07:35:25;7.63;97.28
75170;SHT31;63749;49.186;9.222;2023-12-14T07:37:50;7.59;97.52
75170;SHT31;63749;49.186;9.222;2023-12-14T07:40:15;7.62;97.43
75170;SHT31;63749;49.186;9.222;2023-12-14T07:42:41;7.74;96.79
75170;SHT31;63749;49.186;9.222;2023-12-14T07:45:07;7.80;96.45
75170;SHT31;63749;49.186;9.222;2023-12-14T07:47:34;7.77;96.62
75170;SHT31;63749;49.186;9.222;2023-12-14T07:50:00;7.79;96.74
75170;SHT31;63749;49.186;9.222;2023-12-14T07:52:25;7.79;96.65
75170;SHT31;63749;49.186;9.222;2023-12-14T07:54:50;7.82;96.47
75170;SHT31;63749;49.186;9.222;2023-12-14T07:57:15;7.76;96.67
75170;SHT31;63749;49.186;9.222;2023-12-14T07:59:41;7.79;96.67
75170;SHT31;63749;49.186;9.222;2023-12-14T08:02:06;7.89;96.45
75170;SHT31;63749;49.186;9.222;2023-12-14T08:04:31;7.89;96.29
75170;SHT31;63749;49.186;9.222;2023-12-14T08:06:58;7.91;96.13
75170;SHT31;63749;49.186;9.222;2023-12-14T08:09:23;7.87;96.29
75170;SHT31;63749;49.186;9.222;2023-12-14T08:11:49;7.87;96.45
75170;SHT31;63749;49.186;9.222;2023-12-14T08:14:17;7.91;96.32
75170;SHT31;63749;49.186;9.222;2023-12-14T08:16:42;7.98;96.29
75170;SHT31;63749;49.186;9.222;2023-12-14T08:19:07;8.04;95.88
75170;SHT31;63749;49.186;9.222;2023-12-14T08:21:33;8.08;95.84
75170;SHT31;63749;49.186;9.222;2023-12-14T08:23:58;8.14;95.15
75170;SHT31;63749;49.186;9.222;2023-12-14T08:26:23;8.13;95.47
75170;SHT31;63749;49.186;9.222;2023-12-14T08:28:49;8.20;95.26
75170;SHT31;63749;49.186;9.222;2023-12-14T08:31:14;8.27;95.17
75170;SHT31;63749;49.186;9.222;2023-12-14T08:33:43;8.25;95.21
75170;SHT31;63749;49.186;9.222;2023-12-14T08:36:08;8.24;95.23
75170;SHT31;63749;49.186;9.222;2023-12-14T08:38:34;8.23;95.14
75170;SHT31;63749;49.186;9.222;2023-12-14T08:40:59;8.18;94.94
75170;SHT31;63749;49.186;9.222;2023-12-14T08:43:25;8.21;94.83
75170;SHT31;63749;49.186;9.222;2023-12-14T08:45:51;8.25;95.05
75170;SHT31;63749;49.186;9.222;2023-12-14T08:48:16;8.24;95.30
75170;SHT31;63749;49.186;9.222;2023-12-14T08:50:42;8.28;95.22
75170;SHT31;63749;49.186;9.222;2023-12-14T08:53:07;8.34;94.91
75170;SHT31;63749;49.186;9.222;2023-12-14T08:55:34;8.28;95.15
75170;SHT31;63749;49.186;9.222;2023-12-14T08:57:59;8.37;94.80
75170;SHT31;63749;49.186;9.222;2023-12-14T09:00:25;8.31;94.73
75170;SHT31;63749;49.186;9.222;2023-12-14T09:02:51;8.33;94.87
75170;SHT31;63749;49.186;9.222;2023-12-14T09:05:16;8.34;95.13
75170;SHT31;63749;49.186;9.222;2023-12-14T09:07:44;8.46;94.65
75170;SHT31;63749;49.186;9.222;2023-12-14T09:10:09;8.54;93.81
75170;SHT31;63749;49.186;9.222;2023-12-14T09:12:35;8.49;93.78
75170;SHT31;63749;49.186;9.222;2023-12-14T09:15:03;8.51;93.73
75170;SHT31;63749;49.186;9.222;2023-12-14T09:17:29;8.58;93.61
75170;SHT31;63749;49.186;9.222;2023-12-14T09:19:59;8.55;93.20
75170;SHT31;63749;49.186;9.222;2023-12-14T09:22:24;8.51;93.45
75170;SHT31;63749;49.186;9.222;2023-12-14T09:24:50;8.58;93.51
75170;SHT31;63749;49.186;9.222;2023-12-14T09:27:15;8.62;93.08
75170;SHT31;63749;49.186;9.222;2023-12-14T09:29:40;8.62;93.29
75170;SHT31;63749;49.186;9.222;2023-12-14T09:32:07;8.69;92.80
75170;SHT31;63749;49.186;9.222;2023-12-14T09:34:33;8.75;92.62
75170;SHT31;63749;49.186;9.222;2023-12-14T09:36:59;8.79;92.78
75170;SHT31;63749;49.186;9.222;2023-12-14T09:39:25;8.84;92.40
75170;SHT31;63749;49.186;9.222;2023-12-14T09:41:53;8.86;92.29
75170;SHT31;63749;49.186;9.222;2023-12-14T09:44:25;8.86;92.07
75170;SHT31;63749;49.186;9.222;2023-12-14T09:46:51;8.84;92.00
75170;SHT31;63749;49.186;9.222;2023-12-14T09:49:16;8.77;91.66
75170;SHT31;63749;49.186;9.222;2023-12-14T09:51:43;8.73;92.07
75170;SHT31;63749;49.186;9.222;2023-12-14T09:54:08;8.79;91.81
75170;SHT31;63749;49.186;9.222;2023-12-14T09:56:34;8.82;91.94
75170;SHT31;63749;49.186;9.222;2023-12-14T09:59:00;8.83;92.10
75170;SHT31;63749;49.186;9.222;2023-12-14T10:01:28;8.87;92.21
75170;SHT31;63749;49.186;9.222;2023-12-14T10:04:07;8.87;91.87
75170;SHT31;63749;49.186;9.222;2023-12-14T10:06:33;8.93;91.82
75170;SHT31;63749;49.186;9.222;2023-12-14T10:08:58;8.97;91.81
75170;SHT31;63749;49.186;9.222;2023-12-14T10:11:24;9.04;91.25
75170;SHT31;63749;49.186;9.222;2023-12-14T10:13:49;9.07;91.62
75170;SHT31;63749;49.186;9.222;2023-12-14T10:16:31;9.09;91.39
75170;SHT31;63749;49.186;9.222;2023-12-14T10:18:57;9.12;91.26
75170;SHT31;63749;49.186;9.222;2023-12-14T10:21:25;9.12;91.46
75170;SHT31;63749;49.186;9.222;2023-12-14T10:23:51;9.07;91.08
75170;SHT31;63749;49.186;9.222;2023-12-14T10:26:16;9.06;91.17
75170;SHT31;63749;49.186;9.222;2023-12-14T10:28:42;9.10;91.34
75170;SHT31;63749;49.186;9.222;2023-12-14T10:31:09;9.07;90.80
75170;SHT31;63749;49.186;9.222;2023-12-14T10:33:35;9.17;90.88
75170;SHT31;63749;49.186;9.222;2023-12-14T10:36:01;9.16;91.20
75170;SHT31;63749;49.186;9.222;2023-12-14T10:38:29;9.23;90.94
75170;SHT31;63749;49.186;9.222;2023-12-14T10:40:55;9.31;90.76
75170;SHT31;63749;49.186;9.222;2023-12-14T10:43:21;9.30;90.77
75170;SHT31;63749;49.186;9.222;2023-12-14T10:45:47;9.38;90.45
75170;SHT31;63749;49.186;9.222;2023-12-14T10:48:13;9.33;90.62
75170;SHT31;63749;49.186;9.222;2023-12-14T10:50:42;9.30;90.89
75170;SHT31;63749;49.186;9.222;2023-12-14T10:53:08;9.20;90.99
75170;SHT31;63749;49.186;9.222;2023-12-14T10:55:38;9.22;90.99
75170;SHT31;63749;49.186;9.222;2023-12-14T10:58:05;9.24;90.77
75170;SHT31;63749;49.186;9.222;2023-12-14T11:00:31;9.24;90.59
75170;SHT31;63749;49.186;9.222;2023-12-14T11:02:58;9.28;90.38
75170;SHT31;63749;49.186;9.222;2023-12-14T11:05:27;9.40;89.99
75170;SHT31;63749;49.186;9.222;2023-12-14T11:07:59;9.57;89.01
75170;SHT31;63749;49.186;9.222;2023-12-14T11:10:27;9.65;88.98
75170;SHT31;63749;49.186;9.222;2023-12-14T11:12:56;9.70;88.85
75170;SHT31;63749;49.186;9.222;2023-12-14T11:15:24;9.83;88.36
75170;SHT31;63749;49.186;9.222;2023-12-14T11:20:47;9.74;89.11
75170;SHT31;63749;49.186;9.222;2023-12-14T11:23:14;9.64;89.43
75170;SHT31;63749;49.186;9.222;2023-12-14T11:25:42;9.44;90.28
75170;SHT31;63749;49.186;9.222;2023-12-14T11:28:07;9.23;91.28
75170;SHT31;63749;49.186;9.222;2023-12-14T11:30:34;9.16;91.79
75170;SHT31;63749;49.186;9.222;2023-12-14T11:33:00;9.19;91.39
75170;SHT31;63749;49.186;9.222;2023-12-14T11:35:25;9.24;91.39
75170;SHT31;63749;49.186;9.222;2023-12-14T11:37:51;9.17;91.36
75170;SHT31;63749;49.186;9.222;2023-12-14T11:40:16;9.16;91.59
75170;SHT31;63749;49.186;9.222;2023-12-14T11:43:06;9.20;90.74
75170;SHT31;63749;49.186;9.222;2023-12-14T11:45:39;9.20;91.01
75170;SHT31;63749;49.186;9.222;2023-12-14T11:48:07;9.14;91.12
75170;SHT31;63749;49.186;9.222;2023-12-14T11:50:33;9.10;91.53
75170;SHT31;63749;49.186;9.222;2023-12-14T11:53:00;9.09;91.63
75170;SHT31;63749;49.186;9.222;2023-12-14T11:55:26;9.07;91.43
75170;SHT31;63749;49.186;9.222;2023-12-14T11:57:51;9.09;91.50
75170;SHT31;63749;49.186;9.222;2023-12-14T12:00:18;9.03;91.60
75170;SHT31;63749;49.186;9.222;2023-12-14T12:02:43;9.02;91.68
75170;SHT31;63749;49.186;9.222;2023-12-14T12:05:09;9.12;90.61
75170;SHT31;63749;49.186;9.222;2023-12-14T12:07:39;9.30;89.88
75170;SHT31;63749;49.186;9.222;2023-12-14T12:10:05;9.37;89.91
75170;SHT31;63749;49.186;9.222;2023-12-14T12:12:33;9.40;89.78
75170;SHT31;63749;49.186;9.222;2023-12-14T12:14:59;9.41;90.03
75170;SHT31;63749;49.186;9.222;2023-12-14T12:17:24;9.43;90.22
75170;SHT31;63749;49.186;9.222;2023-12-14T12:19:49;9.44;89.91
75170;SHT31;63749;49.186;9.222;2023-12-14T12:22:15;9.48;89.28
75170;SHT31;63749;49.186;9.222;2023-12-14T12:24:40;9.48;88.93
75170;SHT31;63749;49.186;9.222;2023-12-14T12:27:05;9.47;88.99
75170;SHT31;63749;49.186;9.222;2023-12-14T12:29:31;9.45;89.39
75170;SHT31;63749;49.186;9.222;2023-12-14T12:31:57;9.48;88.92
75170;SHT31;63749;49.186;9.222;2023-12-14T12:34:22;9.48;89.14
75170;SHT31;63749;49.186;9.222;2023-12-14T12:36:47;9.51;88.83
75170;SHT31;63749;49.186;9.222;2023-12-14T12:39:13;9.45;89.01
75170;SHT31;63749;49.186;9.222;2023-12-14T12:41:38;9.44;89.22
75170;SHT31;63749;49.186;9.222;2023-12-14T12:44:04;9.44;89.10
75170;SHT31;63749;49.186;9.222;2023-12-14T12:46:37;9.41;88.95
75170;SHT31;63749;49.186;9.222;2023-12-14T12:49:04;9.48;88.65
75170;SHT31;63749;49.186;9.222;2023-12-14T12:51:31;9.48;88.07
75170;SHT31;63749;49.186;9.222;2023-12-14T12:53:59;9.44;88.15
75170;SHT31;63749;49.186;9.222;2023-12-14T12:56:27;9.43;87.95
75170;SHT31;63749;49.186;9.222;2023-12-14T12:58:53;9.40;88.29
75170;SHT31;63749;49.186;9.222;2023-12-14T13:01:22;9.40;88.45
75170;SHT31;63749;49.186;9.222;2023-12-14T13:03:54;9.44;88.43
75170;SHT31;63749;49.186;9.222;2023-12-14T13:06:21;9.40;88.36
75170;SHT31;63749;49.186;9.222;2023-12-14T13:08:47;9.38;88.17
75170;SHT31;63749;49.186;9.222;2023-12-14T13:11:12;9.34;88.52
75170;SHT31;63749;49.186;9.222;2023-12-14T13:13:39;9.28;88.69
75170;SHT31;63749;49.186;9.222;2023-12-14T13:16:05;9.23;88.73
75170;SHT31;63749;49.186;9.222;2023-12-14T13:18:30;9.24;88.52
75170;SHT31;63749;49.186;9.222;2023-12-14T13:20:56;9.24;88.41
75170;SHT31;63749;49.186;9.222;2023-12-14T13:23:22;9.22;88.57
75170;SHT31;63749;49.186;9.222;2023-12-14T13:25:47;9.26;88.20
75170;SHT31;63749;49.186;9.222;2023-12-14T13:28:13;9.20;88.36
75170;SHT31;63749;49.186;9.222;2023-12-14T13:30:38;9.23;88.00
75170;SHT31;63749;49.186;9.222;2023-12-14T13:33:04;9.17;88.17
75170;SHT31;63749;49.186;9.222;2023-12-14T13:35:31;9.23;88.10
75170;SHT31;63749;49.186;9.222;2023-12-14T13:37:57;9.22;88.10
75170;SHT31;63749;49.186;9.222;2023-12-14T13:40:24;9.16;88.56
75170;SHT31;63749;49.186;9.222;2023-12-14T13:42:50;9.16;87.99
75170;SHT31;63749;49.186;9.222;2023-12-14T13:45:16;9.14;88.05
75170;SHT31;63749;49.186;9.222;2023-12-14T13:47:42;9.16;88.09
75170;SHT31;63749;49.186;9.222;2023-12-14T13:50:07;9.14;88.15
75170;SHT31;63749;49.186;9.222;2023-12-14T13:52:33;9.19;87.81
75170;SHT31;63749;49.186;9.222;2023-12-14T13:55:00;9.16;87.77
75170;SHT31;63749;49.186;9.222;2023-12-14T13:57:25;9.16;88.10
75170;SHT31;63749;49.186;9.222;2023-12-14T13:59:52;9.10;88.30
75170;SHT31;63749;49.186;9.222;2023-12-14T14:02:17;9.12;88.49
75170;SHT31;63749;49.186;9.222;2023-12-14T14:04:43;9.14;88.29
75170;SHT31;63749;49.186;9.222;2023-12-14T14:07:08;9.10;88.60
75170;SHT31;63749;49.186;9.222;2023-12-14T14:09:34;9.10;88.60
75170;SHT31;63749;49.186;9.222;2023-12-14T14:12:00;9.10;88.80
75170;SHT31;63749;49.186;9.222;2023-12-14T14:14:26;9.02;89.11
75170;SHT31;63749;49.186;9.222;2023-12-14T14:16:51;9.02;89.40
75170;SHT31;63749;49.186;9.222;2023-12-14T14:19:17;9.00;89.54
75170;SHT31;63749;49.186;9.222;2023-12-14T14:21:42;8.94;89.90
75170;SHT31;63749;49.186;9.222;2023-12-14T14:24:08;8.93;90.10
75170;SHT31;63749;49.186;9.222;2023-12-14T14:26:34;8.92;90.38
75170;SHT31;63749;49.186;9.222;2023-12-14T14:28:59;8.90;90.53
75170;SHT31;63749;49.186;9.222;2023-12-14T14:31:30;8.86;90.62
75170;SHT31;63749;49.186;9.222;2023-12-14T14:34:00;8.87;90.51
75170;SHT31;63749;49.186;9.222;2023-12-14T14:36:26;8.89;90.07
75170;SHT31;63749;49.186;9.222;2023-12-14T14:38:51;8.86;90.13
75170;SHT31;63749;49.186;9.222;2023-12-14T14:41:19;8.82;90.44
75170;SHT31;63749;49.186;9.222;2023-12-14T14:43:44;8.86;89.55
75170;SHT31;63749;49.186;9.222;2023-12-14T14:46:10;8.86;90.20
75170;SHT31;63749;49.186;9.222;2023-12-14T14:48:35;8.89;90.02
75170;SHT31;63749;49.186;9.222;2023-12-14T14:51:02;8.83;89.97
75170;SHT31;63749;49.186;9.222;2023-12-14T14:53:28;8.87;89.68
75170;SHT31;63749;49.186;9.222;2023-12-14T14:55:55;8.80;89.75
75170;SHT31;63749;49.186;9.222;2023-12-14T14:58:20;8.77;90.01
75170;SHT31;63749;49.186;9.222;2023-12-14T15:00:46;8.75;90.09
75170;SHT31;63749;49.186;9.222;2023-12-14T15:03:13;8.69;90.45
75170;SHT31;63749;49.186;9.222;2023-12-14T15:05:39;8.61;90.81
75170;SHT31;63749;49.186;9.222;2023-12-14T15:08:04;8.58;91.18
75170;SHT31;63749;49.186;9.222;2023-12-14T15:10:31;8.55;91.56
75170;SHT31;63749;49.186;9.222;2023-12-14T15:12:57;8.51;91.72
75170;SHT31;63749;49.186;9.222;2023-12-14T15:15:22;8.51;91.62
75170;SHT31;63749;49.186;9.222;2023-12-14T15:17:47;8.45;91.45
75170;SHT31;63749;49.186;9.222;2023-12-14T15:20:13;8.46;91.43
75170;SHT31;63749;49.186;9.222;2023-12-14T15:22:38;8.41;91.15
75170;SHT31;63749;49.186;9.222;2023-12-14T15:25:04;8.41;90.81
75170;SHT31;63749;49.186;9.222;2023-12-14T15:27:30;8.45;90.05
75170;SHT31;63749;49.186;9.222;2023-12-14T15:29:57;8.41;89.75
75170;SHT31;63749;49.186;9.222;2023-12-14T15:32:23;8.33;89.84
75170;SHT31;63749;49.186;9.222;2023-12-14T15:34:48;8.31;90.11
75170;SHT31;63749;49.186;9.222;2023-12-14T15:37:15;8.27;90.11
75170;SHT31;63749;49.186;9.222;2023-12-14T15:39:40;8.24;90.04
75170;SHT31;63749;49.186;9.222;2023-12-14T15:42:08;8.20;90.01